createdAt,value
2018-10-17T00:02:01.444Z,11.30
2018-10-17T00:04:28.995Z,11.27
2018-10-17T00:06:56.754Z,12.73
2018-10-17T00:09:24.384Z,11.00
2018-10-17T00:11:52.003Z,8.30
2018-10-17T00:14:19.719Z,15.00
2018-10-17T00:16:47.779Z,10.77
2018-10-17T00:19:15.514Z,11.30
2018-10-17T00:21:43.191Z,11.07
2018-10-17T00:24:10.857Z,11.20
2018-10-17T00:26:38.611Z,11.23
2018-10-17T00:29:06.381Z,11.87
2018-10-17T00:31:34.068Z,10.53
2018-10-17T00:34:01.833Z,10.43
2018-10-17T00:36:29.493Z,10.03
2018-10-17T00:38:57.187Z,10.40
2018-10-17T00:41:24.841Z,10.03
2018-10-17T00:43:52.549Z,10.50
2018-10-17T00:46:20.195Z,10.57
2018-10-17T00:48:47.896Z,10.30
2018-10-17T00:51:16.811Z,14.93
2018-10-17T00:53:44.500Z,10.30
2018-10-17T00:56:12.096Z,9.50
2018-10-17T00:58:39.831Z,11.23
2018-10-17T01:01:07.575Z,11.93
2018-10-17T01:03:35.161Z,12.60
2018-10-17T01:06:02.883Z,11.53
2018-10-17T01:08:30.627Z,10.30
2018-10-17T01:10:58.406Z,12.90
2018-10-17T01:13:26.124Z,10.10
2018-10-17T01:15:53.783Z,11.60
2018-10-17T01:18:21.523Z,8.67
2018-10-17T01:20:52.808Z,9.30
2018-10-17T01:23:20.603Z,11.27
2018-10-17T01:25:48.360Z,10.27
2018-10-17T01:28:16.128Z,10.40
2018-10-17T01:30:43.882Z,9.43
2018-10-17T01:33:11.687Z,11.57
2018-10-17T01:35:39.366Z,13.07
2018-10-17T01:38:06.999Z,9.70
2018-10-17T01:40:34.707Z,10.50
2018-10-17T01:43:02.941Z,11.77
2018-10-17T01:45:30.729Z,10.97
2018-10-17T01:47:58.421Z,10.43
2018-10-17T01:50:26.066Z,10.93
2018-10-17T01:52:53.804Z,13.43
2018-10-17T01:55:21.526Z,13.00
2018-10-17T01:57:49.212Z,10.80
2018-10-17T02:00:17.040Z,10.70
2018-10-17T02:02:44.804Z,13.97
2018-10-17T02:05:12.611Z,11.07
2018-10-17T02:07:40.219Z,13.43
2018-10-17T02:10:07.935Z,10.83
2018-10-17T02:12:35.694Z,10.80
2018-10-17T02:15:03.500Z,11.57
2018-10-17T02:17:31.203Z,9.33
2018-10-17T02:19:58.939Z,14.03
2018-10-17T02:22:26.636Z,9.90
2018-10-17T02:24:54.382Z,9.83
2018-10-17T02:27:22.171Z,14.87
2018-10-17T02:29:49.894Z,11.37
2018-10-17T02:32:17.650Z,10.80
2018-10-17T02:34:51.093Z,12.43
2018-10-17T02:37:18.821Z,11.47
2018-10-17T02:39:49.788Z,10.80
2018-10-17T02:42:17.495Z,9.20
2018-10-17T02:44:48.843Z,12.43
2018-10-17T02:47:16.619Z,11.70
2018-10-17T02:49:44.324Z,12.20
2018-10-17T02:52:12.064Z,11.03
2018-10-17T02:54:39.780Z,11.07
2018-10-17T02:57:07.569Z,10.93
2018-10-17T02:59:35.325Z,11.50
2018-10-17T03:02:04.143Z,12.03
2018-10-17T03:04:31.860Z,12.60
2018-10-17T03:06:59.630Z,10.80
2018-10-17T03:09:27.428Z,14.00
2018-10-17T03:11:55.114Z,12.10
2018-10-17T03:14:22.766Z,14.37
2018-10-17T03:16:50.486Z,11.23
2018-10-17T03:19:18.310Z,12.67
2018-10-17T03:21:45.940Z,15.47
2018-10-17T03:24:13.644Z,11.93
2018-10-17T03:26:41.340Z,16.40
2018-10-17T03:29:09.135Z,13.90
2018-10-17T03:31:36.907Z,9.60
2018-10-17T03:34:04.724Z,12.50
2018-10-17T03:36:32.356Z,12.90
2018-10-17T03:39:00.052Z,18.80
2018-10-17T03:41:27.725Z,12.80
2018-10-17T03:43:55.364Z,13.75
2018-10-17T03:46:23.143Z,14.70
2018-10-17T03:48:50.870Z,13.53
2018-10-17T03:51:18.580Z,14.28
2018-10-17T03:53:46.320Z,17.70
2018-10-17T03:56:14.065Z,14.47
2018-10-17T03:58:41.772Z,13.43
2018-10-17T04:01:09.583Z,11.88
2018-10-17T04:03:37.243Z,15.80
2018-10-17T04:06:05.543Z,12.80
2018-10-17T04:08:33.240Z,11.10
2018-10-17T04:11:00.927Z,10.30
2018-10-17T04:13:28.620Z,11.57
2018-10-17T04:15:59.416Z,11.38
2018-10-17T04:18:27.105Z,13.05
2018-10-17T04:20:54.824Z,13.30
2018-10-17T04:23:22.544Z,17.20
2018-10-17T04:25:50.204Z,13.60
2018-10-17T04:28:17.934Z,14.90
2018-10-17T04:30:45.616Z,13.68
2018-10-17T04:33:13.344Z,13.50
2018-10-17T04:35:41.080Z,13.08
2018-10-17T04:38:08.807Z,15.70
2018-10-17T04:40:36.486Z,14.60
2018-10-17T04:43:04.304Z,13.88
2018-10-17T04:45:31.920Z,13.33
2018-10-17T04:47:59.704Z,21.55
2018-10-17T04:50:27.396Z,14.35
2018-10-17T04:52:55.329Z,15.20
2018-10-17T04:55:23.014Z,10.55
2018-10-17T04:57:50.741Z,16.73
2018-10-17T05:00:18.472Z,12.18
2018-10-17T05:02:46.193Z,19.05
2018-10-17T05:05:14.007Z,11.00
2018-10-17T05:07:41.600Z,17.35
2018-10-17T05:10:09.348Z,14.00
2018-10-17T05:12:37.108Z,14.53
2018-10-17T05:15:05.112Z,17.20
2018-10-17T05:17:32.920Z,14.35
2018-10-17T05:20:00.704Z,11.63
2018-10-17T05:22:28.380Z,14.10
2018-10-17T05:24:56.124Z,15.40
2018-10-17T05:27:23.808Z,17.75
2018-10-17T05:29:51.652Z,11.83
2018-10-17T05:32:19.429Z,13.95
2018-10-17T05:34:47.209Z,11.20
2018-10-17T05:37:15.062Z,13.93
2018-10-17T05:39:42.908Z,13.72
2018-10-17T05:42:10.902Z,12.45
2018-10-17T05:44:38.652Z,12.13
2018-10-17T05:47:06.423Z,15.45
2018-10-17T05:49:34.122Z,12.05
2018-10-17T05:52:02.195Z,14.40
2018-10-17T05:54:29.972Z,14.33
2018-10-17T05:56:57.656Z,13.00
2018-10-17T05:59:25.508Z,11.90
2018-10-17T06:01:53.691Z,15.32
2018-10-17T06:04:21.404Z,16.73
2018-10-17T06:06:49.316Z,13.08
2018-10-17T06:09:17.028Z,14.77
2018-10-17T06:11:44.751Z,14.78
2018-10-17T06:14:14.380Z,14.53
2018-10-17T06:16:42.341Z,13.35
2018-10-17T06:19:10.154Z,14.95
2018-10-17T06:21:38.320Z,17.80
2018-10-17T06:24:06.100Z,13.05
2018-10-17T06:26:33.803Z,14.07
2018-10-17T06:29:01.557Z,14.20
2018-10-17T06:31:29.318Z,14.85
2018-10-17T06:33:57.215Z,10.68
2018-10-17T06:36:24.959Z,21.70
2018-10-17T06:38:53.079Z,12.43
2018-10-17T06:41:20.832Z,26.20
2018-10-17T06:43:48.634Z,11.93
2018-10-17T06:46:16.296Z,15.45
2018-10-17T06:48:44.035Z,12.47
2018-10-17T06:51:11.827Z,17.20
2018-10-17T06:53:43.124Z,16.10
2018-10-17T06:56:10.835Z,16.73
2018-10-17T06:58:38.534Z,17.37
2018-10-17T07:01:06.250Z,14.77
2018-10-17T07:03:34.005Z,16.67
2018-10-17T07:06:01.748Z,17.20
2018-10-17T07:08:29.538Z,16.63
2018-10-17T07:10:57.347Z,17.43
2018-10-17T07:13:24.942Z,14.87
2018-10-17T07:15:52.827Z,15.97
2018-10-17T07:18:20.544Z,14.63
2018-10-17T07:20:48.220Z,18.70
2018-10-17T07:23:15.967Z,20.10
2018-10-17T07:25:43.716Z,16.53
2018-10-17T07:28:11.504Z,16.83
2018-10-17T07:30:39.191Z,17.83
2018-10-17T07:33:06.852Z,15.73
2018-10-17T07:35:34.566Z,16.03
2018-10-17T07:38:02.468Z,17.40
2018-10-17T07:40:30.267Z,16.90
2018-10-17T07:42:58.011Z,19.20
2018-10-17T07:45:25.750Z,22.57
2018-10-17T07:47:53.511Z,21.00
2018-10-17T07:50:21.155Z,17.53
2018-10-17T07:52:48.897Z,19.37
2018-10-17T07:55:16.651Z,23.20
2018-10-17T07:57:44.255Z,18.30
2018-10-17T08:00:13.439Z,17.07
2018-10-17T08:02:41.115Z,17.40
2018-10-17T08:05:09.120Z,18.10
2018-10-17T08:07:36.812Z,20.40
2018-10-17T08:10:06.002Z,24.57
2018-10-17T08:12:33.750Z,15.10
2018-10-17T08:15:01.474Z,15.77
2018-10-17T08:17:29.139Z,16.80
2018-10-17T08:19:56.812Z,22.10
2018-10-17T08:22:24.528Z,16.43
2018-10-17T08:24:52.191Z,26.00
2018-10-17T08:27:19.937Z,19.00
2018-10-17T08:29:47.599Z,28.43
2018-10-17T08:32:15.320Z,18.73
2018-10-17T08:34:43.028Z,20.70
2018-10-17T08:37:11.196Z,20.30
2018-10-17T08:39:38.482Z,35.33
2018-10-17T08:42:06.401Z,23.03
2018-10-17T08:44:34.315Z,24.83
2018-10-17T08:47:01.975Z,27.10
2018-10-17T08:49:29.734Z,24.63
2018-10-17T08:51:57.439Z,23.27
2018-10-17T08:54:25.084Z,27.17
2018-10-17T08:56:52.743Z,22.97
2018-10-17T08:59:20.400Z,25.50
2018-10-17T09:01:48.060Z,19.53
2018-10-17T09:04:15.732Z,26.17
2018-10-17T09:06:43.564Z,31.33
2018-10-17T09:09:12.649Z,25.10
2018-10-17T09:11:40.955Z,27.87
2018-10-17T09:14:09.144Z,22.80
2018-10-17T09:16:38.041Z,21.53
2018-10-17T09:19:06.077Z,24.50
2018-10-17T09:21:34.306Z,22.50
2018-10-17T09:24:01.592Z,23.50
2018-10-17T09:26:29.380Z,23.57
2018-10-17T09:28:57.056Z,20.10
2018-10-17T09:31:24.767Z,25.20
2018-10-17T09:33:52.433Z,24.20
2018-10-17T09:36:20.292Z,29.90
2018-10-17T09:39:51.473Z,24.93
2018-10-17T09:42:19.255Z,23.43
2018-10-17T09:44:46.900Z,29.33
2018-10-17T09:47:14.591Z,26.07
2018-10-17T09:49:42.323Z,22.87
2018-10-17T09:52:10.125Z,25.20
2018-10-17T09:54:37.808Z,23.33
2018-10-17T09:57:05.660Z,21.63
2018-10-17T09:59:33.367Z,23.00
2018-10-17T10:02:01.091Z,26.50
2018-10-17T10:04:28.767Z,22.07
2018-10-17T10:06:56.594Z,26.03
2018-10-17T10:09:24.259Z,33.73
2018-10-17T10:11:52.028Z,23.93
2018-10-17T10:14:19.671Z,26.00
2018-10-17T10:16:47.335Z,19.53
2018-10-17T10:19:15.056Z,20.90
2018-10-17T10:21:42.795Z,26.97
2018-10-17T10:24:10.586Z,22.80
2018-10-17T10:26:41.708Z,25.00
2018-10-17T10:29:10.279Z,23.87
2018-10-17T10:31:37.984Z,22.90
2018-10-17T10:34:05.766Z,21.13
2018-10-17T10:36:33.492Z,22.77
2018-10-17T10:39:01.165Z,23.60
2018-10-17T10:41:32.117Z,24.83
2018-10-17T10:43:59.805Z,22.27
2018-10-17T10:46:27.512Z,22.53
2018-10-17T10:48:55.276Z,22.37
2018-10-17T10:51:23.029Z,24.27
2018-10-17T10:53:50.582Z,23.00
2018-10-17T10:56:18.395Z,19.87
2018-10-17T10:58:46.172Z,21.43
2018-10-17T11:01:13.784Z,21.30
2018-10-17T11:03:41.509Z,25.20
2018-10-17T11:06:09.227Z,23.03
2018-10-17T11:08:36.886Z,23.30
2018-10-17T11:11:05.072Z,18.33
2018-10-17T11:13:32.803Z,36.43
2018-10-17T11:16:00.506Z,19.20
2018-10-17T11:18:28.207Z,20.60
2018-10-17T11:20:55.977Z,21.80
2018-10-17T11:23:23.537Z,20.17
2018-10-17T11:25:51.316Z,16.77
2018-10-17T11:28:19.051Z,21.77
2018-10-17T11:30:46.811Z,18.03
2018-10-17T11:33:14.577Z,17.30
2018-10-17T11:35:42.242Z,17.47
2018-10-17T11:38:09.917Z,16.53
2018-10-17T11:40:37.653Z,15.30
2018-10-17T11:43:05.315Z,15.50
2018-10-17T11:45:32.976Z,16.47
2018-10-17T11:48:00.664Z,17.73
2018-10-17T11:50:28.404Z,18.93
2018-10-17T11:52:56.189Z,15.90
2018-10-17T11:55:23.756Z,23.57
2018-10-17T11:57:51.460Z,14.30
2018-10-17T12:00:19.185Z,15.00
2018-10-17T12:02:46.883Z,14.10
2018-10-17T12:05:15.662Z,13.40
2018-10-17T12:07:43.440Z,18.77
2018-10-17T12:10:11.147Z,15.50
2018-10-17T12:12:38.852Z,16.23
2018-10-17T12:15:11.156Z,16.73
2018-10-17T12:17:38.887Z,21.50
2018-10-17T12:20:08.767Z,12.63
2018-10-17T12:22:36.520Z,14.90
2018-10-17T12:25:04.415Z,15.60
2018-10-17T12:27:32.120Z,17.47
2018-10-17T12:29:59.906Z,15.63
2018-10-17T12:32:27.611Z,17.30
2018-10-17T12:34:55.342Z,17.37
2018-10-17T12:37:23.028Z,12.33
2018-10-17T12:39:50.803Z,14.27
2018-10-17T12:42:18.393Z,14.20
2018-10-17T12:44:46.117Z,15.37
2018-10-17T12:47:13.837Z,13.50
2018-10-17T12:49:41.474Z,13.97
2018-10-17T12:52:09.229Z,12.07
2018-10-17T12:54:37.051Z,18.17
2018-10-17T12:57:04.963Z,15.97
2018-10-17T12:59:32.683Z,14.70
2018-10-17T13:02:00.424Z,17.30
2018-10-17T13:04:28.148Z,11.17
2018-10-17T13:06:55.979Z,14.60
2018-10-17T13:09:23.626Z,13.77
2018-10-17T13:11:51.252Z,13.90
2018-10-17T13:14:19.008Z,12.17
2018-10-17T13:16:46.737Z,14.10
2018-10-17T13:19:14.513Z,12.20
2018-10-17T13:21:42.252Z,11.23
2018-10-17T13:24:09.928Z,15.00
2018-10-17T13:26:37.635Z,12.87
2018-10-17T13:29:05.815Z,20.83
2018-10-17T13:31:35.759Z,11.70
2018-10-17T13:34:03.798Z,13.30
2018-10-17T13:36:31.573Z,14.80
2018-10-17T13:38:59.368Z,11.33
2018-10-17T13:41:27.081Z,13.20
2018-10-17T13:43:54.935Z,11.10
2018-10-17T13:46:22.616Z,11.80
2018-10-17T13:48:50.404Z,10.80
2018-10-17T13:51:18.114Z,11.23
2018-10-17T13:53:45.826Z,12.23
2018-10-17T13:56:13.560Z,10.73
2018-10-17T13:58:41.295Z,9.13
2018-10-17T14:01:09.051Z,12.47
2018-10-17T14:03:37.068Z,9.80
2018-10-17T14:06:05.563Z,9.63
2018-10-17T14:08:33.176Z,11.20
2018-10-17T14:11:00.906Z,10.23
2018-10-17T14:13:28.793Z,11.07
2018-10-17T14:15:56.579Z,11.70
2018-10-17T14:18:24.302Z,12.43
2018-10-17T14:20:51.979Z,14.80
2018-10-17T14:23:19.697Z,9.40
2018-10-17T14:25:47.332Z,11.23
2018-10-17T14:28:15.044Z,11.20
2018-10-17T14:30:42.748Z,11.50
2018-10-17T14:33:10.587Z,13.30
2018-10-17T14:35:38.304Z,13.43
2018-10-17T14:38:06.184Z,10.73
2018-10-17T14:40:33.747Z,12.57
2018-10-17T14:43:04.820Z,12.23
2018-10-17T14:45:32.513Z,9.80
2018-10-17T14:48:00.320Z,13.23
2018-10-17T14:50:28.927Z,11.87
2018-10-17T14:52:56.819Z,12.57
2018-10-17T14:55:24.496Z,10.13
2018-10-17T14:57:52.260Z,11.53
2018-10-17T15:00:20.052Z,13.07
2018-10-17T15:02:47.747Z,14.03
2018-10-17T15:05:15.532Z,12.07
2018-10-17T15:07:43.251Z,11.73
2018-10-17T15:10:10.918Z,13.70
2018-10-17T15:12:38.700Z,9.30
2018-10-17T15:15:07.883Z,10.70
2018-10-17T15:17:35.575Z,9.53
2018-10-17T15:20:03.341Z,15.83
2018-10-17T15:25:23.344Z,13.37
2018-10-17T15:27:50.736Z,9.80
2018-10-17T15:30:18.200Z,13.57
2018-10-17T15:32:45.515Z,13.50
2018-10-17T15:35:12.920Z,13.60
2018-10-17T15:37:40.284Z,20.70
2018-10-17T15:40:07.691Z,11.60
2018-10-17T15:42:35.284Z,17.23
2018-10-17T15:45:02.778Z,12.17
2018-10-17T15:47:30.106Z,16.27
2018-10-17T15:50:01.131Z,11.07
2018-10-17T15:52:28.530Z,10.80
2018-10-17T15:54:55.911Z,12.37
2018-10-17T15:57:23.310Z,11.60
2018-10-17T15:59:50.699Z,19.63
2018-10-17T16:02:18.220Z,13.93
2018-10-17T16:04:45.505Z,10.97
2018-10-17T16:07:12.870Z,19.93
2018-10-17T16:09:40.247Z,14.53
2018-10-17T16:12:07.695Z,11.57
2018-10-17T16:14:35.060Z,9.97
2018-10-17T16:17:02.506Z,14.33
2018-10-17T16:19:29.851Z,12.33
2018-10-17T16:21:57.234Z,10.87
2018-10-17T16:24:24.654Z,14.10
2018-10-17T16:26:52.062Z,17.63
2018-10-17T16:29:19.452Z,15.83
2018-10-17T16:31:46.843Z,15.60
2018-10-17T16:34:14.238Z,15.73
2018-10-17T16:36:41.607Z,13.70
2018-10-17T16:39:10.472Z,13.30
2018-10-17T16:41:37.904Z,14.87
2018-10-17T16:44:05.568Z,12.77
2018-10-17T16:46:32.919Z,13.00
2018-10-17T16:49:00.307Z,17.07
2018-10-17T16:51:27.731Z,16.33
2018-10-17T16:53:55.148Z,13.00
2018-10-17T16:56:22.559Z,15.60
2018-10-17T16:58:49.943Z,16.33
2018-10-17T17:01:17.326Z,10.80
2018-10-17T17:03:44.710Z,12.57
2018-10-17T17:06:12.175Z,18.63
2018-10-17T17:08:39.491Z,13.70
2018-10-17T17:11:06.915Z,28.40
2018-10-17T17:13:34.391Z,13.83
2018-10-17T17:16:01.782Z,14.30
2018-10-17T17:18:29.178Z,12.50
2018-10-17T17:20:56.614Z,12.43
2018-10-17T17:23:23.956Z,15.03
2018-10-17T17:25:51.507Z,15.60
2018-10-17T17:28:18.894Z,15.20
2018-10-17T17:30:46.333Z,19.70
2018-10-17T17:33:13.914Z,15.40
2018-10-17T17:35:41.268Z,17.50
2018-10-17T17:38:08.669Z,13.57
2018-10-17T17:40:39.307Z,13.60
2018-10-17T17:43:06.727Z,14.60
2018-10-17T17:45:34.220Z,13.27
2018-10-17T17:48:01.719Z,18.10
2018-10-17T17:50:29.111Z,13.40
2018-10-17T17:52:56.499Z,14.80
2018-10-17T17:55:23.922Z,16.27
2018-10-17T17:57:51.320Z,13.73
2018-10-17T18:00:18.784Z,13.67
2018-10-17T18:02:46.253Z,14.83
2018-10-17T18:05:13.709Z,12.20
2018-10-17T18:07:41.178Z,16.80
2018-10-17T18:10:08.660Z,11.17
2018-10-17T18:12:36.263Z,10.70
2018-10-17T18:15:03.997Z,12.70
2018-10-17T18:17:32.116Z,13.50
2018-10-17T18:19:59.660Z,13.33
2018-10-17T18:22:27.116Z,19.03
2018-10-17T18:24:54.729Z,12.00
2018-10-17T18:27:23.210Z,14.53
2018-10-17T18:29:52.055Z,12.80
2018-10-17T18:32:22.392Z,18.13
2018-10-17T18:34:52.769Z,13.90
2018-10-17T18:37:21.987Z,15.60
2018-10-17T18:39:51.969Z,11.30
2018-10-17T18:42:21.684Z,19.20
2018-10-17T18:44:51.595Z,15.30
2018-10-17T18:47:22.521Z,14.50
2018-10-17T18:49:53.058Z,13.53
2018-10-17T18:52:24.183Z,15.40
2018-10-17T18:54:55.300Z,16.40
2018-10-17T18:57:26.125Z,13.57
2018-10-17T18:59:56.639Z,13.70
2018-10-17T19:02:26.480Z,14.13
2018-10-17T19:04:56.160Z,13.47
2018-10-17T19:07:26.444Z,16.40
2018-10-17T19:09:56.491Z,13.93
2018-10-17T19:12:26.652Z,13.20
2018-10-17T19:14:57.014Z,13.37
2018-10-17T19:17:27.096Z,15.57
2018-10-17T19:19:57.295Z,10.90
2018-10-17T19:22:27.104Z,15.50
2018-10-17T19:24:57.392Z,12.77
2018-10-17T19:27:28.112Z,11.33
2018-10-17T19:29:58.847Z,14.30
2018-10-17T19:32:28.760Z,11.33
2018-10-17T19:34:58.309Z,13.13
2018-10-17T19:37:28.008Z,12.50
2018-10-17T19:39:57.430Z,12.17
2018-10-17T19:42:27.212Z,13.03
2018-10-17T19:44:57.148Z,13.70
2018-10-17T19:47:27.123Z,15.90
2018-10-17T19:49:56.353Z,11.83
2018-10-17T19:52:26.055Z,14.60
2018-10-17T19:54:55.360Z,13.43
2018-10-17T19:57:24.534Z,14.23
2018-10-17T19:59:53.724Z,14.50
2018-10-17T20:02:22.717Z,12.27
2018-10-17T20:04:50.941Z,14.90
2018-10-17T20:07:22.600Z,14.57
2018-10-17T20:09:51.082Z,14.30
2018-10-17T20:12:19.292Z,13.50
2018-10-17T20:14:47.081Z,13.27
2018-10-17T20:17:14.869Z,11.20
2018-10-17T20:19:42.588Z,15.10
2018-10-17T20:22:11.173Z,14.60
2018-10-17T20:24:38.979Z,14.00
2018-10-17T20:27:07.326Z,12.40
2018-10-17T20:29:34.988Z,14.87
2018-10-17T20:32:02.719Z,13.50
2018-10-17T20:34:30.403Z,12.60
2018-10-17T20:36:58.120Z,14.57
2018-10-17T20:39:25.872Z,15.57
2018-10-17T20:41:53.537Z,11.23
2018-10-17T20:44:21.357Z,11.97
2018-10-17T20:46:49.027Z,12.70
2018-10-17T20:49:16.753Z,11.07
2018-10-17T20:51:44.435Z,14.30
2018-10-17T20:54:12.128Z,12.53
2018-10-17T20:56:39.964Z,12.70
2018-10-17T20:59:07.788Z,16.13
2018-10-17T21:01:35.461Z,12.80
2018-10-17T21:04:03.305Z,15.77
2018-10-17T21:06:31.360Z,14.03
2018-10-17T21:08:59.044Z,12.67
2018-10-17T21:11:26.916Z,14.03
2018-10-17T21:13:54.598Z,13.70
2018-10-17T21:16:22.271Z,13.67
2018-10-17T21:18:53.224Z,14.93
2018-10-17T21:21:24.615Z,19.63
2018-10-17T21:23:52.283Z,14.90
2018-10-17T21:26:20.052Z,12.67
2018-10-17T21:28:47.800Z,13.80
2018-10-17T21:31:15.552Z,16.20
2018-10-17T21:33:43.287Z,12.80
2018-10-17T21:36:10.997Z,16.20
2018-10-17T21:38:38.679Z,15.00
2018-10-17T21:41:06.340Z,16.17
2018-10-17T21:43:34.052Z,17.40
2018-10-17T21:46:01.776Z,14.00
2018-10-17T21:48:29.479Z,15.20
2018-10-17T21:50:57.137Z,15.83
2018-10-17T21:53:24.931Z,14.27
2018-10-17T21:55:52.657Z,17.03
2018-10-17T21:58:20.796Z,14.77
2018-10-17T22:00:48.521Z,15.10
2018-10-17T22:03:16.304Z,17.77
2018-10-17T22:05:44.000Z,16.43
2018-10-17T22:08:11.774Z,12.50
2018-10-17T22:10:39.430Z,12.73
2018-10-17T22:13:07.351Z,15.30
2018-10-17T22:15:35.095Z,13.93
2018-10-17T22:18:02.995Z,14.30
2018-10-17T22:20:30.623Z,13.93
2018-10-17T22:22:58.344Z,13.63
2018-10-17T22:25:25.970Z,13.37
2018-10-17T22:27:53.796Z,14.40
2018-10-17T22:30:21.556Z,12.93
2018-10-17T22:32:49.421Z,12.13
2018-10-17T22:35:17.119Z,16.30
2018-10-17T22:37:44.847Z,13.60
2018-10-17T22:40:12.531Z,18.70
2018-10-17T22:42:40.202Z,11.83
2018-10-17T22:45:07.899Z,19.93
2018-10-17T22:47:35.621Z,13.43
2018-10-17T22:50:03.439Z,17.43
2018-10-17T22:52:31.076Z,13.60
2018-10-17T22:54:58.800Z,11.40
2018-10-17T22:57:26.579Z,14.80
2018-10-17T22:59:54.264Z,16.00
2018-10-17T23:02:22.044Z,15.73
2018-10-17T23:04:49.700Z,15.70
2018-10-17T23:07:17.428Z,11.70
2018-10-17T23:09:46.047Z,12.67
2018-10-17T23:12:13.704Z,13.07
2018-10-17T23:14:41.375Z,14.93
2018-10-17T23:17:09.080Z,12.20
2018-10-17T23:19:36.735Z,14.87
2018-10-17T23:22:04.715Z,21.87
2018-10-17T23:24:32.431Z,15.07
2018-10-17T23:27:00.149Z,14.80
2018-10-17T23:29:28.031Z,15.07
2018-10-17T23:31:55.714Z,19.27
2018-10-17T23:34:23.444Z,13.43
2018-10-17T23:36:51.077Z,14.53
2018-10-17T23:39:18.867Z,14.80
2018-10-17T23:41:46.563Z,14.40
2018-10-17T23:44:14.276Z,11.90
2018-10-17T23:46:41.920Z,13.20
2018-10-17T23:49:09.715Z,13.60
2018-10-17T23:51:37.466Z,12.33
2018-10-17T23:54:05.356Z,15.33
2018-10-17T23:56:33.140Z,12.90
2018-10-17T23:59:00.906Z,12.47
